Time;durP1;ratioP1;P1;durP2;ratioP2;P2;SDS_P1;SDS_P2;PMS_P1;PMS_P2;Temp;Humidity;BMP_temperature;BMP_pressure;BME280_temperature;BME280_humidity;BME280_pressure;Samples;Min_cycle;Max_cycle;Signal;HPM_P1;HPM_P2
2021/11/26 00:01:39;;;;;;;22.35;16.75;;;6.10;1.00;;;;;;5091604;28;20224;-85
2021/11/26 00:04:08;;;;;;;23.30;15.07;;;6.10;1.00;;;;;;5088209;28;20301;-87
2021/11/26 00:06:37;;;;;;;25.70;15.23;;;6.10;1.00;;;;;;5073833;28;21808;-88
2021/11/26 00:09:05;;;;;;;18.38;13.82;;;6.00;1.00;;;;;;5075308;28;20243;-87
2021/11/26 00:11:35;;;;;;;24.30;14.40;;;6.00;1.00;;;;;;5075760;28;20242;-87
2021/11/26 00:14:08;;;;;;;24.75;15.30;;;6.00;1.00;;;;;;5072571;28;20247;-86
2021/11/26 00:16:40;;;;;;;22.17;14.48;;;6.00;1.00;;;;;;5088043;28;21110;-87
2021/11/26 00:19:07;;;;;;;20.02;14.45;;;6.00;1.00;;;;;;5092431;28;20216;-87
2021/11/26 00:21:42;;;;;;;23.48;15.38;;;6.00;1.00;;;;;;5086623;28;20290;-87
2021/11/26 00:24:12;;;;;;;24.42;16.00;;;6.00;1.00;;;;;;5078494;28;20217;-86
2021/11/26 00:26:40;;;;;;;21.45;14.68;;;6.00;1.00;;;;;;5090220;28;20236;-87
2021/11/26 00:29:08;;;;;;;20.40;14.95;;;5.90;1.00;;;;;;5087757;28;20231;-86
2021/11/26 00:31:35;;;;;;;21.50;14.18;;;6.00;1.00;;;;;;5099035;28;20291;-88
2021/11/26 00:34:03;;;;;;;24.40;14.65;;;6.00;1.00;;;;;;5089991;28;20231;-89
2021/11/26 00:36:30;;;;;;;21.55;15.85;;;6.00;1.00;;;;;;5093668;28;20238;-87
2021/11/26 00:39:01;;;;;;;23.02;14.20;;;6.00;1.00;;;;;;5081646;28;20224;-86
2021/11/26 00:41:28;;;;;;;24.17;14.50;;;6.00;1.00;;;;;;5066558;28;20256;-86
2021/11/26 00:43:55;;;;;;;22.80;14.35;;;6.00;1.00;;;;;;5082995;28;20232;-86
2021/11/26 00:46:24;;;;;;;22.17;14.57;;;6.00;1.00;;;;;;5070882;28;20677;-86
2021/11/26 00:48:52;;;;;;;18.98;12.45;;;6.00;1.00;;;;;;5063690;28;20224;-85
2021/11/26 00:51:19;;;;;;;19.80;14.55;;;6.00;1.00;;;;;;5084621;28;20224;-87
2021/11/26 00:53:47;;;;;;;21.58;14.13;;;6.00;1.00;;;;;;5077932;28;21604;-86
2021/11/26 00:56:16;;;;;;;17.70;14.50;;;6.00;1.00;;;;;;5095803;28;20219;-86
2021/11/26 00:58:43;;;;;;;20.25;14.25;;;6.00;1.00;;;;;;5083123;28;20267;-86
2021/11/26 01:01:11;;;;;;;19.55;14.00;;;6.00;1.00;;;;;;5082150;28;20235;-85
2021/11/26 01:03:38;;;;;;;24.55;13.55;;;6.00;1.00;;;;;;5081554;28;20216;-86
2021/11/26 01:06:05;;;;;;;22.48;13.45;;;6.00;1.00;;;;;;5088699;28;20217;-86
2021/11/26 01:08:33;;;;;;;19.40;13.27;;;6.00;1.00;;;;;;5111295;27;20255;-84
2021/11/26 01:11:00;;;;;;;22.90;13.90;;;6.00;1.00;;;;;;5112570;28;20219;-85
2021/11/26 01:13:29;;;;;;;19.75;14.20;;;6.00;1.00;;;;;;5094781;27;20224;-86
2021/11/26 01:16:00;;;;;;;19.42;13.57;;;6.00;1.00;;;;;;5090956;28;20609;-85
2021/11/26 01:18:27;;;;;;;21.25;13.75;;;5.90;1.00;;;;;;5108151;27;20230;-86
2021/11/26 01:20:54;;;;;;;18.48;12.45;;;5.90;1.00;;;;;;5079115;28;21648;-86
2021/11/26 01:23:23;;;;;;;22.50;14.88;;;5.90;1.00;;;;;;5060085;28;20225;-86
2021/11/26 01:25:50;;;;;;;17.63;12.50;;;6.00;1.00;;;;;;5079869;28;21136;-85
2021/11/26 01:28:18;;;;;;;19.60;13.60;;;5.90;1.00;;;;;;5059043;28;20605;-86
2021/11/26 01:30:49;;;;;;;20.50;13.45;;;6.00;1.00;;;;;;5079365;28;20235;-86
2021/11/26 01:33:21;;;;;;;18.00;13.52;;;5.90;1.00;;;;;;5078699;28;20283;-86
2021/11/26 01:35:52;;;;;;;18.17;12.40;;;5.90;1.00;;;;;;5064646;28;20220;-87
2021/11/26 01:38:19;;;;;;;16.80;13.32;;;6.00;1.00;;;;;;5085986;28;20347;-86
2021/11/26 01:40:49;;;;;;;19.60;13.32;;;6.00;1.00;;;;;;5079625;28;20239;-85
2021/11/26 01:43:19;;;;;;;16.42;12.45;;;6.00;1.00;;;;;;5083200;28;20216;-86
2021/11/26 01:45:49;;;;;;;19.40;12.88;;;6.00;1.00;;;;;;5064827;28;20378;-86
2021/11/26 01:48:17;;;;;;;18.10;12.57;;;6.00;1.00;;;;;;5065426;28;20244;-87
2021/11/26 01:50:52;;;;;;;18.33;12.85;;;6.00;1.00;;;;;;5060921;28;20653;-88
2021/11/26 01:53:20;;;;;;;19.00;13.60;;;6.00;1.00;;;;;;5083674;28;20229;-87
2021/11/26 01:55:53;;;;;;;19.08;12.90;;;6.00;1.00;;;;;;5070791;28;20235;-87
2021/11/26 01:58:22;;;;;;;19.60;12.88;;;6.00;1.00;;;;;;5086465;28;21073;-87
2021/11/26 02:00:59;;;;;;;16.63;13.15;;;6.00;1.00;;;;;;5066176;28;20269;-87
2021/11/26 02:03:30;;;;;;;16.75;12.23;;;6.00;1.00;;;;;;5064384;28;20736;-87
2021/11/26 02:05:57;;;;;;;18.67;12.07;;;6.00;1.00;;;;;;5066218;28;20330;-87
2021/11/26 02:08:24;;;;;;;21.48;14.23;;;6.00;1.00;;;;;;5082276;28;20279;-87
2021/11/26 02:10:51;;;;;;;20.70;14.30;;;6.00;1.00;;;;;;5083469;28;20231;-86
2021/11/26 02:13:19;;;;;;;19.73;14.68;;;6.10;1.00;;;;;;5086590;28;20694;-86
2021/11/26 02:15:53;;;;;;;17.98;12.68;;;6.10;1.00;;;;;;5085352;28;20319;-87
2021/11/26 02:18:26;;;;;;;19.75;14.00;;;6.10;1.00;;;;;;5074763;28;20219;-86
2021/11/26 02:20:55;;;;;;;22.77;12.65;;;6.10;1.00;;;;;;5091660;28;20228;-87
2021/11/26 02:23:25;;;;;;;20.38;13.30;;;6.20;1.00;;;;;;5067118;28;20282;-87
2021/11/26 02:25:54;;;;;;;21.90;13.18;;;6.20;1.00;;;;;;5067167;28;20236;-87
2021/11/26 02:28:24;;;;;;;17.42;12.90;;;6.20;1.00;;;;;;5091644;28;20650;-88
2021/11/26 02:30:55;;;;;;;20.30;13.70;;;6.20;1.00;;;;;;5063787;28;20228;-86
2021/11/26 02:33:28;;;;;;;18.38;12.65;;;6.20;1.00;;;;;;5082914;28;20255;-87
2021/11/26 02:35:57;;;;;;;17.95;13.32;;;6.20;1.00;;;;;;5066403;28;20250;-87
2021/11/26 02:38:27;;;;;;;18.13;13.20;;;6.20;1.00;;;;;;5070562;28;21459;-86
2021/11/26 02:40:55;;;;;;;19.70;11.57;;;6.20;1.00;;;;;;5086918;28;20228;-86
2021/11/26 02:43:24;;;;;;;19.55;13.10;;;6.10;1.00;;;;;;5089922;28;20231;-87
2021/11/26 02:45:52;;;;;;;22.52;13.38;;;6.10;1.00;;;;;;5087033;28;20219;-87
2021/11/26 02:48:20;;;;;;;18.15;12.90;;;6.20;1.00;;;;;;5081304;28;20231;-87
2021/11/26 02:50:48;;;;;;;19.27;13.07;;;6.20;1.00;;;;;;5064206;28;20719;-86
2021/11/26 02:53:20;;;;;;;21.67;13.15;;;6.20;1.00;;;;;;5073307;28;20267;-87
2021/11/26 02:55:50;;;;;;;19.08;13.32;;;6.20;1.00;;;;;;5077934;28;20239;-87
2021/11/26 02:58:17;;;;;;;17.85;13.18;;;6.20;1.00;;;;;;5088483;28;21403;-87
2021/11/26 03:00:48;;;;;;;21.40;14.13;;;6.10;1.00;;;;;;5093250;28;20231;-86
2021/11/26 03:03:16;;;;;;;17.52;13.00;;;6.10;1.00;;;;;;5076420;28;20234;-86
2021/11/26 03:05:48;;;;;;;18.75;12.90;;;6.10;1.00;;;;;;5085813;27;20219;-87
2021/11/26 03:08:19;;;;;;;16.88;12.75;;;6.00;1.00;;;;;;5076485;28;20553;-87
2021/11/26 03:10:47;;;;;;;15.93;11.85;;;6.10;1.00;;;;;;5086044;28;20216;-86
2021/11/26 03:13:14;;;;;;;18.13;13.63;;;6.10;1.00;;;;;;5087752;28;20212;-87
2021/11/26 03:15:44;;;;;;;24.17;13.60;;;6.10;1.00;;;;;;5071336;28;21025;-86
2021/11/26 03:18:18;;;;;;;15.63;12.02;;;6.10;1.00;;;;;;5089014;28;20284;-87
2021/11/26 03:20:57;;;;;;;25.45;13.35;;;6.10;1.00;;;;;;5067541;28;20227;-85
2021/11/26 03:23:26;;;;;;;21.83;13.40;;;6.10;1.00;;;;;;5066042;28;20743;-86
2021/11/26 03:25:54;;;;;;;17.75;13.45;;;6.10;1.00;;;;;;5087083;28;20224;-86
2021/11/26 03:28:22;;;;;;;17.17;12.60;;;6.20;1.00;;;;;;5065660;28;20915;-88
2021/11/26 03:30:50;;;;;;;19.48;14.10;;;6.20;1.00;;;;;;5089075;28;20220;-86
2021/11/26 03:33:19;;;;;;;19.70;13.02;;;6.20;1.00;;;;;;5086702;28;20224;-86
2021/11/26 03:35:47;;;;;;;23.13;14.45;;;6.10;1.00;;;;;;5084459;28;20228;-87
2021/11/26 03:38:14;;;;;;;20.77;14.63;;;6.10;1.00;;;;;;5082812;28;20228;-87
2021/11/26 03:40:43;;;;;;;22.73;14.32;;;6.10;1.00;;;;;;5084386;28;20233;-87
2021/11/26 03:43:10;;;;;;;24.20;14.60;;;6.10;1.00;;;;;;5090017;28;20276;-87
2021/11/26 03:45:40;;;;;;;21.15;14.52;;;6.00;1.00;;;;;;5083886;28;20239;-87
2021/11/26 03:48:07;;;;;;;19.92;15.20;;;5.90;1.00;;;;;;5072332;28;20232;-87
2021/11/26 03:50:39;;;;;;;20.48;13.80;;;5.90;1.00;;;;;;5062405;28;20230;-86
2021/11/26 03:53:09;;;;;;;19.75;13.13;;;6.00;1.00;;;;;;5065645;28;20223;-87
2021/11/26 03:55:43;;;;;;;19.45;14.30;;;6.10;1.00;;;;;;5077826;28;20318;-87
2021/11/26 03:58:11;;;;;;;19.27;13.88;;;6.00;1.00;;;;;;5063527;28;20243;-87
2021/11/26 04:00:39;;;;;;;21.17;14.43;;;6.10;1.00;;;;;;5069029;28;20233;-87
2021/11/26 04:03:06;;;;;;;19.63;14.40;;;6.00;1.00;;;;;;5087545;28;20208;-86
2021/11/26 04:05:33;;;;;;;16.40;12.57;;;6.00;1.00;;;;;;5071396;28;20232;-87
2021/11/26 04:08:04;;;;;;;20.77;14.48;;;6.00;1.00;;;;;;5086130;28;21087;-86
2021/11/26 04:10:33;;;;;;;17.58;13.40;;;5.90;1.00;;;;;;5084835;28;20267;-86
2021/11/26 04:13:04;;;;;;;22.00;14.48;;;6.00;1.00;;;;;;5064102;28;20236;-86
2021/11/26 04:15:37;;;;;;;21.75;14.90;;;6.00;1.00;;;;;;5083737;28;20571;-86
2021/11/26 04:18:08;;;;;;;29.23;21.00;;;6.00;1.00;;;;;;5087644;28;20703;-87
2021/11/26 04:20:42;;;;;;;21.25;14.35;;;6.00;1.00;;;;;;5070842;28;20791;-88
2021/11/26 04:23:13;;;;;;;20.20;14.35;;;5.90;1.00;;;;;;5074898;28;20208;-88
2021/11/26 04:25:43;;;;;;;21.58;13.30;;;5.90;1.00;;;;;;5073714;28;20333;-88
2021/11/26 04:28:12;;;;;;;21.13;14.35;;;5.80;1.00;;;;;;5074223;28;20227;-88
2021/11/26 04:30:39;;;;;;;21.73;12.70;;;5.80;1.00;;;;;;5092163;28;20216;-88
2021/11/26 04:33:06;;;;;;;21.30;11.65;;;5.80;1.00;;;;;;5066712;28;20220;-87
2021/11/26 04:35:34;;;;;;;17.58;12.45;;;5.80;1.00;;;;;;5065910;28;20226;-87
2021/11/26 04:38:01;;;;;;;19.13;12.73;;;5.80;1.00;;;;;;5080858;28;20287;-83
2021/11/26 04:40:30;;;;;;;21.48;13.48;;;5.80;1.00;;;;;;5076053;28;20220;-86
2021/11/26 04:42:57;;;;;;;21.10;13.38;;;5.80;1.00;;;;;;5081826;28;20360;-85
2021/11/26 04:45:26;;;;;;;18.17;13.27;;;5.80;1.00;;;;;;5083067;28;20220;-86
2021/11/26 04:47:53;;;;;;;20.85;14.00;;;5.80;1.00;;;;;;5079683;28;20239;-84
2021/11/26 04:50:20;;;;;;;19.88;14.70;;;5.90;1.00;;;;;;5082424;28;20224;-85
2021/11/26 04:52:47;;;;;;;19.00;13.88;;;5.90;1.00;;;;;;5081864;28;20259;-85
2021/11/26 04:55:16;;;;;;;21.35;14.40;;;5.90;1.00;;;;;;5071622;28;20999;-86
2021/11/26 04:57:45;;;;;;;20.70;14.75;;;5.90;1.00;;;;;;5049194;28;20227;-87
2021/11/26 05:00:15;;;;;;;26.27;15.35;;;5.90;1.00;;;;;;5071013;28;20275;-87
2021/11/26 05:02:46;;;;;;;20.20;14.77;;;5.90;1.00;;;;;;5079708;28;20570;-85
2021/11/26 05:05:16;;;;;;;23.58;14.45;;;5.90;1.00;;;;;;5058511;28;20247;-86
2021/11/26 05:07:46;;;;;;;20.85;13.82;;;5.90;1.00;;;;;;5058503;28;20259;-87
2021/11/26 05:10:19;;;;;;;16.90;13.35;;;5.90;1.00;;;;;;5073259;28;20239;-87
2021/11/26 05:12:52;;;;;;;22.25;12.82;;;5.90;1.00;;;;;;5055755;28;21386;-86
2021/11/26 05:15:32;;;;;;;19.00;13.35;;;5.90;1.00;;;;;;5077966;28;20224;-87
2021/11/26 05:18:04;;;;;;;18.80;13.38;;;5.90;1.00;;;;;;5060857;28;20313;-86
2021/11/26 05:20:38;;;;;;;16.13;13.02;;;5.90;1.00;;;;;;5064702;28;20250;-85
2021/11/26 05:23:05;;;;;;;20.48;14.07;;;5.90;1.00;;;;;;5076839;28;20228;-85
2021/11/26 05:25:40;;;;;;;22.70;13.20;;;5.80;1.00;;;;;;5056194;28;20356;-85
2021/11/26 05:28:08;;;;;;;19.08;13.85;;;5.80;1.00;;;;;;5072537;28;20258;-85
2021/11/26 05:30:51;;;;;;;19.77;13.55;;;5.80;1.00;;;;;;5056976;28;20243;-85
2021/11/26 05:33:20;;;;;;;20.48;13.27;;;5.80;1.00;;;;;;5055644;28;20359;-84
2021/11/26 05:35:56;;;;;;;21.33;13.23;;;5.80;1.00;;;;;;5073579;28;20277;-84
2021/11/26 05:38:39;;;;;;;19.67;13.02;;;5.70;1.00;;;;;;5055584;28;20303;-85
2021/11/26 05:41:06;;;;;;;25.23;13.35;;;5.70;1.00;;;;;;5060669;28;20227;-85
2021/11/26 05:43:36;;;;;;;18.35;14.25;;;5.70;1.00;;;;;;5063423;28;20294;-84
2021/11/26 05:46:07;;;;;;;20.77;14.32;;;5.70;1.00;;;;;;5075548;28;20228;-84
2021/11/26 05:48:38;;;;;;;22.00;15.02;;;5.70;1.00;;;;;;5074867;28;20275;-85
2021/11/26 05:51:13;;;;;;;20.17;13.60;;;5.80;1.00;;;;;;5056565;28;20231;-85
2021/11/26 05:53:41;;;;;;;27.85;16.02;;;5.80;1.00;;;;;;5077485;28;20306;-84
2021/11/26 05:56:13;;;;;;;19.58;13.82;;;5.80;1.00;;;;;;5058259;28;20282;-84
2021/11/26 05:58:40;;;;;;;20.25;15.48;;;5.80;1.00;;;;;;5077584;28;20688;-85
2021/11/26 06:01:11;;;;;;;28.38;16.00;;;5.80;1.00;;;;;;5080043;28;20232;-85
2021/11/26 06:03:42;;;;;;;17.73;13.00;;;5.90;1.00;;;;;;5079761;28;20215;-84
2021/11/26 06:06:12;;;;;;;18.75;14.65;;;5.90;1.00;;;;;;5087132;28;20232;-84
2021/11/26 06:08:42;;;;;;;20.45;14.40;;;5.80;1.00;;;;;;5077383;28;20908;-84
2021/11/26 06:11:12;;;;;;;23.20;14.73;;;5.80;1.00;;;;;;5066993;28;20399;-85
2021/11/26 06:13:39;;;;;;;18.63;13.43;;;5.70;1.00;;;;;;5082087;28;20316;-84
2021/11/26 06:16:06;;;;;;;20.60;13.30;;;5.70;1.00;;;;;;5083927;28;20290;-86
2021/11/26 06:18:35;;;;;;;19.20;13.27;;;5.70;1.00;;;;;;5087999;28;20224;-85
2021/11/26 06:21:04;;;;;;;15.05;12.35;;;5.70;1.00;;;;;;5080334;28;20284;-85
2021/11/26 06:23:33;;;;;;;19.25;12.63;;;5.70;1.00;;;;;;5055670;28;20231;-82
2021/11/26 06:26:00;;;;;;;17.25;11.95;;;5.70;1.00;;;;;;5058700;28;20270;-87
2021/11/26 06:28:41;;;;;;;18.85;12.27;;;5.70;1.00;;;;;;5070632;28;20231;-82
2021/11/26 06:31:08;;;;;;;18.90;12.60;;;5.70;1.00;;;;;;5073705;28;21190;-79
2021/11/26 06:33:35;;;;;;;19.33;15.10;;;5.70;1.00;;;;;;5074537;28;20257;-78
2021/11/26 06:36:07;;;;;;;21.73;12.65;;;5.70;1.00;;;;;;5075114;28;20234;-78
2021/11/26 06:38:33;;;;;;;23.13;12.38;;;5.70;1.00;;;;;;5074742;28;20227;-79
2021/11/26 06:41:00;;;;;;;16.27;12.15;;;5.70;1.00;;;;;;5078961;28;20209;-77
2021/11/26 06:43:27;;;;;;;18.25;9.85;;;5.70;1.00;;;;;;5081687;28;20754;-77
2021/11/26 06:45:55;;;;;;;18.13;10.93;;;5.70;1.00;;;;;;5071529;28;20290;-78
2021/11/26 06:48:25;;;;;;;16.60;11.10;;;5.80;1.00;;;;;;5066733;28;20246;-77
2021/11/26 06:50:53;;;;;;;18.88;12.68;;;5.70;1.00;;;;;;5055767;28;20633;-78
2021/11/26 06:53:21;;;;;;;17.80;10.38;;;5.70;1.00;;;;;;5067478;28;20216;-79
2021/11/26 06:55:49;;;;;;;15.32;9.85;;;5.70;1.00;;;;;;5062543;28;21034;-78
2021/11/26 06:58:17;;;;;;;22.98;11.10;;;5.70;1.00;;;;;;5061476;28;20232;-78
2021/11/26 07:00:44;;;;;;;13.77;9.75;;;5.70;1.00;;;;;;5052378;28;21144;-78
2021/11/26 07:03:10;;;;;;;18.58;11.02;;;5.70;1.00;;;;;;5058068;28;20225;-78
2021/11/26 07:05:38;;;;;;;13.80;9.20;;;5.60;1.00;;;;;;5068566;28;22263;-79
2021/11/26 07:08:06;;;;;;;17.77;10.90;;;5.60;1.00;;;;;;5063553;28;20239;-78
2021/11/26 07:10:34;;;;;;;19.30;11.25;;;5.70;1.00;;;;;;5066005;28;20224;-78
2021/11/26 07:13:02;;;;;;;16.50;10.45;;;5.70;1.00;;;;;;5069298;28;20221;-80
2021/11/26 07:15:30;;;;;;;20.20;12.07;;;5.70;1.00;;;;;;5066602;28;22903;-79
2021/11/26 07:17:57;;;;;;;15.95;10.02;;;5.80;1.00;;;;;;5064232;28;20263;-79
2021/11/26 07:20:24;;;;;;;18.17;11.15;;;5.80;1.00;;;;;;5068525;28;20221;-79
2021/11/26 07:22:51;;;;;;;21.10;11.55;;;5.80;1.00;;;;;;5072109;28;20223;-78
2021/11/26 07:25:18;;;;;;;17.73;10.48;;;5.80;1.00;;;;;;5071489;28;21035;-79
2021/11/26 07:27:47;;;;;;;18.33;10.95;;;5.70;1.00;;;;;;5079028;28;20264;-79
2021/11/26 07:30:14;;;;;;;17.98;11.07;;;5.80;1.00;;;;;;5069518;28;21255;-78
2021/11/26 07:32:41;;;;;;;24.60;12.35;;;5.80;1.00;;;;;;5075169;28;20522;-79
2021/11/26 07:35:09;;;;;;;17.95;10.65;;;5.80;1.00;;;;;;5071365;28;20224;-78
2021/11/26 07:37:36;;;;;;;13.35;9.05;;;5.80;1.00;;;;;;5075100;28;20236;-78
2021/11/26 07:40:07;;;;;;;14.38;9.82;;;5.70;1.00;;;;;;5075472;28;20338;-80
2021/11/26 07:42:35;;;;;;;12.98;9.45;;;5.70;1.00;;;;;;5076251;28;20231;-79
2021/11/26 07:45:04;;;;;;;15.95;10.27;;;5.80;1.00;;;;;;5069286;28;20259;-79
2021/11/26 07:47:31;;;;;;;14.90;9.40;;;5.90;1.00;;;;;;5088003;28;20254;-79
2021/11/26 07:49:58;;;;;;;14.20;9.85;;;5.90;1.00;;;;;;5080598;28;21110;-79
2021/11/26 07:52:25;;;;;;;11.77;8.25;;;6.00;1.00;;;;;;5080292;28;20208;-76
2021/11/26 07:54:52;;;;;;;12.43;8.90;;;6.00;1.00;;;;;;5081649;28;20220;-77
2021/11/26 07:57:19;;;;;;;15.13;10.15;;;5.90;1.00;;;;;;5078841;28;20297;-79
2021/11/26 07:59:47;;;;;;;19.33;10.18;;;6.00;1.00;;;;;;5079655;28;20220;-77
2021/11/26 08:02:15;;;;;;;13.85;10.23;;;6.00;1.00;;;;;;5072236;28;20235;-78
2021/11/26 08:04:43;;;;;;;14.70;9.95;;;6.00;1.00;;;;;;5071537;28;20368;-78
2021/11/26 08:07:10;;;;;;;13.07;8.43;;;6.00;1.00;;;;;;5072095;28;20234;-76
2021/11/26 08:09:38;;;;;;;12.80;8.60;;;6.00;1.00;;;;;;5069694;28;20236;-78
2021/11/26 08:12:08;;;;;;;14.75;9.07;;;6.00;1.00;;;;;;5069312;28;20253;-80
2021/11/26 08:14:36;;;;;;;11.70;9.10;;;6.00;1.00;;;;;;5068125;28;20217;-77
2021/11/26 08:17:03;;;;;;;14.93;9.57;;;6.00;1.00;;;;;;5070867;28;20689;-78
2021/11/26 08:19:32;;;;;;;20.77;11.10;;;6.10;1.00;;;;;;5067152;28;20688;-79
2021/11/26 08:21:59;;;;;;;22.13;11.13;;;6.20;1.00;;;;;;5072853;28;20220;-79
2021/11/26 08:24:26;;;;;;;16.20;9.18;;;6.30;1.00;;;;;;5072942;28;20224;-81
2021/11/26 08:26:53;;;;;;;18.30;10.90;;;6.30;1.00;;;;;;5076033;28;20238;-78
2021/11/26 08:29:21;;;;;;;17.27;8.48;;;6.40;1.00;;;;;;5070110;28;20236;-80
2021/11/26 08:31:48;;;;;;;16.95;10.02;;;6.40;1.00;;;;;;5079802;28;20220;-80
2021/11/26 08:34:16;;;;;;;18.92;10.88;;;6.40;1.00;;;;;;5078432;28;20841;-81
2021/11/26 08:36:44;;;;;;;20.25;10.90;;;6.50;1.00;;;;;;5080244;28;20216;-80
2021/11/26 08:39:11;;;;;;;19.42;10.45;;;6.50;1.00;;;;;;5078623;28;21326;-77
2021/11/26 08:41:38;;;;;;;18.55;9.25;;;6.60;1.00;;;;;;5072050;28;20228;-78
2021/11/26 08:44:06;;;;;;;17.25;10.45;;;6.60;1.00;;;;;;5076445;28;20236;-82
2021/11/26 08:46:35;;;;;;;15.63;9.55;;;6.70;1.00;;;;;;5073858;28;20232;-79
2021/11/26 08:49:02;;;;;;;14.23;9.95;;;6.70;1.00;;;;;;5075933;28;20273;-76
2021/11/26 08:51:34;;;;;;;17.60;10.48;;;6.80;1.00;;;;;;5072862;28;20232;-81
2021/11/26 08:54:02;;;;;;;15.45;10.70;;;6.80;1.00;;;;;;5069850;28;20227;-78
2021/11/26 08:56:30;;;;;;;14.90;10.27;;;6.80;1.00;;;;;;5070937;28;20339;-79
2021/11/26 08:58:57;;;;;;;16.42;9.35;;;6.90;1.00;;;;;;5074535;28;20212;-81
2021/11/26 09:01:24;;;;;;;13.77;10.38;;;6.90;1.00;;;;;;5085612;28;20223;-80
2021/11/26 09:03:52;;;;;;;17.45;10.98;;;6.90;1.00;;;;;;5076362;28;20220;-77
2021/11/26 09:06:20;;;;;;;11.70;9.27;;;7.00;1.00;;;;;;5078477;28;20228;-79
2021/11/26 09:08:48;;;;;;;18.83;10.63;;;7.00;1.00;;;;;;5069567;28;20236;-77
2021/11/26 09:11:17;;;;;;;24.33;14.20;;;7.00;1.00;;;;;;5079439;28;20225;-82
2021/11/26 09:13:44;;;;;;;16.67;11.70;;;7.10;1.00;;;;;;5079664;28;20967;-79
2021/11/26 09:16:11;;;;;;;21.50;12.05;;;7.30;1.00;;;;;;5079348;28;20310;-82
2021/11/26 09:18:39;;;;;;;16.63;12.57;;;7.40;1.00;;;;;;5076543;28;20220;-78
2021/11/26 09:21:06;;;;;;;17.45;11.68;;;7.50;1.00;;;;;;5073083;28;20241;-78
2021/11/26 09:23:33;;;;;;;17.73;11.07;;;7.60;1.00;;;;;;5074614;28;20311;-78
2021/11/26 09:26:01;;;;;;;19.65;12.60;;;7.60;1.00;;;;;;5058395;28;20256;-80
2021/11/26 09:28:30;;;;;;;16.48;10.73;;;7.50;1.00;;;;;;5047999;28;20224;-79
2021/11/26 09:30:57;;;;;;;16.90;10.35;;;7.50;1.00;;;;;;5060372;28;20227;-80
2021/11/26 09:33:24;;;;;;;16.45;10.05;;;7.40;1.00;;;;;;5075588;28;20319;-81
2021/11/26 09:35:54;;;;;;;19.90;12.52;;;7.50;1.00;;;;;;5073386;28;20246;-79
2021/11/26 09:38:21;;;;;;;21.75;13.38;;;7.60;1.00;;;;;;5075000;28;20224;-78
2021/11/26 09:40:49;;;;;;;19.02;10.98;;;7.60;1.00;;;;;;5075170;28;20247;-79
2021/11/26 09:43:16;;;;;;;15.43;11.23;;;7.60;1.00;;;;;;5071023;28;20224;-78
2021/11/26 09:45:45;;;;;;;14.23;10.38;;;7.60;1.00;;;;;;5068457;28;20225;-77
2021/11/26 09:48:12;;;;;;;19.70;9.52;;;7.50;1.00;;;;;;5073670;28;20334;-79
2021/11/26 09:50:39;;;;;;;20.05;11.13;;;7.30;1.00;;;;;;5074483;28;20343;-77
2021/11/26 09:53:15;;;;;;;18.13;11.52;;;7.20;1.00;;;;;;5077794;28;20220;-78
2021/11/26 09:55:48;;;;;;;17.25;11.73;;;7.30;1.00;;;;;;5070997;28;20316;-78
2021/11/26 09:58:17;;;;;;;14.38;9.85;;;7.30;1.00;;;;;;5044577;28;20230;-79
2021/11/26 10:00:46;;;;;;;18.42;10.15;;;7.40;1.00;;;;;;5049467;28;20231;-78
2021/11/26 10:03:13;;;;;;;19.23;12.10;;;7.50;1.00;;;;;;5049424;28;20308;-80
2021/11/26 10:05:41;;;;;;;18.40;12.88;;;7.50;1.00;;;;;;5050640;28;20280;-80
2021/11/26 10:08:08;;;;;;;21.48;14.40;;;7.60;1.00;;;;;;5053075;28;20263;-79
2021/11/26 10:10:37;;;;;;;20.40;13.25;;;7.50;1.00;;;;;;5037417;28;20321;-80
2021/11/26 10:13:07;;;;;;;19.73;13.43;;;7.40;1.00;;;;;;5036624;28;21622;-77
2021/11/26 10:15:40;;;;;;;20.60;13.63;;;7.20;1.00;;;;;;5058244;28;20237;-78
2021/11/26 10:18:12;;;;;;;19.13;14.93;;;7.00;1.00;;;;;;5056025;28;20220;-79
2021/11/26 10:20:54;;;;;;;23.60;16.55;;;6.80;1.00;;;;;;5052660;28;20752;-80
2021/11/26 10:23:22;;;;;;;20.98;15.82;;;6.70;1.00;;;;;;5058545;28;20228;-79
2021/11/26 10:25:50;;;;;;;20.90;14.65;;;6.60;1.00;;;;;;5057377;28;20233;-79
2021/11/26 10:28:21;;;;;;;21.67;15.73;;;6.60;1.00;;;;;;5052604;28;20220;-79
2021/11/26 10:30:50;;;;;;;21.95;15.95;;;6.60;1.00;;;;;;5053801;28;20220;-78
2021/11/26 10:33:23;;;;;;;19.15;14.45;;;6.70;1.00;;;;;;5050456;28;20284;-78
2021/11/26 10:35:54;;;;;;;19.92;15.90;;;6.70;1.00;;;;;;5053354;28;20228;-78
2021/11/26 10:38:23;;;;;;;22.67;14.40;;;6.70;1.00;;;;;;5050948;28;21161;-79
2021/11/26 10:40:53;;;;;;;24.70;16.25;;;6.80;1.00;;;;;;5053018;28;20236;-78
2021/11/26 10:43:23;;;;;;;21.83;15.25;;;7.00;1.00;;;;;;5051656;28;20287;-77
2021/11/26 10:49:06;;;;;;;22.15;16.40;;;7.20;1.00;;;;;;5033820;28;20565;-78
2021/11/26 10:51:43;;;;;;;20.42;15.05;;;7.20;1.00;;;;;;5061625;28;20229;-78
2021/11/26 11:00:11;;;;;;;19.48;14.73;;;7.10;1.00;;;;;;5055045;28;20227;-80
2021/11/26 11:02:40;;;;;;;18.55;14.75;;;7.30;1.00;;;;;;5062196;28;20675;-79
2021/11/26 11:05:10;;;;;;;18.30;14.93;;;7.30;1.00;;;;;;5039021;28;20264;-78
2021/11/26 11:07:43;;;;;;;20.70;15.30;;;7.30;1.00;;;;;;5056761;28;20217;-78
2021/11/26 11:10:14;;;;;;;18.20;14.38;;;7.30;1.00;;;;;;5055616;28;20225;-77
2021/11/26 11:12:41;;;;;;;21.00;14.40;;;7.30;1.00;;;;;;5055073;28;20225;-80
2021/11/26 11:15:10;;;;;;;24.23;16.95;;;7.50;1.00;;;;;;5052953;28;20241;-78
2021/11/26 11:17:38;;;;;;;22.50;13.88;;;7.50;1.00;;;;;;5048837;28;22199;-78
2021/11/26 11:20:10;;;;;;;23.95;15.70;;;7.40;1.00;;;;;;5046330;28;20455;-81
2021/11/26 11:22:38;;;;;;;21.23;15.50;;;7.50;1.00;;;;;;5041975;28;20217;-80
2021/11/26 11:25:09;;;;;;;24.33;15.98;;;7.40;1.00;;;;;;5040535;28;20228;-78
2021/11/26 11:27:36;;;;;;;24.45;16.20;;;7.50;1.00;;;;;;5042561;28;20777;-79
2021/11/26 11:30:04;;;;;;;21.75;16.02;;;7.30;1.00;;;;;;5047278;28;21131;-77
2021/11/26 11:32:31;;;;;;;23.65;14.50;;;7.30;1.00;;;;;;5052520;28;20221;-79
2021/11/26 11:34:59;;;;;;;21.02;14.25;;;7.70;1.00;;;;;;5054612;28;20225;-77
2021/11/26 11:37:29;;;;;;;21.80;13.93;;;8.10;1.00;;;;;;5056989;28;20222;-80
2021/11/26 11:40:02;;;;;;;18.98;13.52;;;8.40;1.00;;;;;;5047880;28;20225;-80
2021/11/26 11:42:32;;;;;;;18.98;13.32;;;8.70;1.00;;;;;;5050512;28;20226;-78
2021/11/26 11:45:07;;;;;;;22.30;15.30;;;8.90;1.00;;;;;;5061085;28;20230;-78
2021/11/26 11:47:34;;;;;;;18.67;13.68;;;9.60;1.00;;;;;;5058095;28;20286;-79
2021/11/26 11:50:11;;;;;;;18.57;14.27;;;10.70;1.00;;;;;;5059131;28;20334;-80
2021/11/26 11:52:41;;;;;;;18.17;13.87;;;11.70;1.00;;;;;;5064038;28;21069;-78
2021/11/26 11:55:19;;;;;;;15.67;12.33;;;12.60;1.00;;;;;;5061025;28;20529;-79
2021/11/26 11:57:47;;;;;;;15.57;12.50;;;13.40;1.00;;;;;;5064289;28;21088;-79
2021/11/26 12:00:17;;;;;;;19.23;13.80;;;13.80;1.00;;;;;;5060236;28;20494;-77
2021/11/26 12:02:49;;;;;;;14.17;11.73;;;14.50;1.00;;;;;;5063351;28;20447;-79
2021/11/26 12:05:24;;;;;;;16.63;12.80;;;14.90;1.00;;;;;;5061648;28;20467;-78
2021/11/26 12:08:04;;;;;;;15.00;11.60;;;14.90;1.00;;;;;;5061217;28;20513;-79
2021/11/26 12:10:43;;;;;;;15.83;12.77;;;15.20;1.00;;;;;;5058829;28;20491;-77
2021/11/26 12:13:23;;;;;;;14.80;12.47;;;15.10;1.00;;;;;;5062666;28;20454;-78
2021/11/26 12:15:51;;;;;;;19.10;11.67;;;15.50;1.00;;;;;;5062198;28;20458;-81
2021/11/26 12:18:18;;;;;;;16.90;13.70;;;15.90;1.00;;;;;;5059868;28;20514;-78
2021/11/26 12:20:48;;;;;;;15.63;12.47;;;15.80;1.00;;;;;;5061046;28;20463;-77
2021/11/26 12:23:22;;;;;;;17.60;13.77;;;14.70;1.00;;;;;;5045312;28;20491;-78
2021/11/26 12:26:12;;;;;;;14.97;12.43;;;12.90;1.00;;;;;;5060640;28;20498;-78
2021/11/26 12:28:42;;;;;;;14.40;11.90;;;13.20;1.00;;;;;;5060211;28;20444;-79
2021/11/26 12:31:12;;;;;;;14.17;12.67;;;14.70;1.00;;;;;;5063470;28;20420;-77
2021/11/26 12:33:40;;;;;;;16.17;12.17;;;15.20;1.00;;;;;;5061181;28;23691;-79
2021/11/26 12:36:09;;;;;;;16.70;12.37;;;15.40;1.00;;;;;;5059166;28;20471;-77
2021/11/26 12:38:42;;;;;;;17.50;12.50;;;14.60;1.00;;;;;;5061876;28;20455;-77
2021/11/26 12:41:11;;;;;;;17.60;14.93;;;13.20;1.00;;;;;;5060915;28;20432;-77
2021/11/26 12:43:43;;;;;;;17.60;13.27;;;11.90;1.00;;;;;;5059575;28;20504;-79
2021/11/26 12:46:33;;;;;;;15.13;12.93;;;10.90;1.00;;;;;;5061502;28;20468;-78
2021/11/26 12:49:27;;;;;;;17.13;12.90;;;10.00;1.00;;;;;;5055890;28;20466;-77
2021/11/26 12:51:56;;;;;;;18.00;14.40;;;9.60;1.00;;;;;;5060813;28;20526;-79
2021/11/26 12:54:28;;;;;;;16.03;12.13;;;9.40;1.00;;;;;;5065594;28;20475;-78
2021/11/26 12:56:56;;;;;;;17.63;12.90;;;9.80;1.00;;;;;;5070456;28;20957;-77
2021/11/26 12:59:32;;;;;;;15.70;11.83;;;10.20;1.00;;;;;;5045159;28;20429;-78
2021/11/26 13:02:00;;;;;;;14.97;11.10;;;10.50;1.00;;;;;;5054988;28;20455;-79
2021/11/26 13:04:27;;;;;;;18.27;16.03;;;10.40;1.00;;;;;;5057678;28;20543;-78
2021/11/26 13:07:05;;;;;;;16.03;12.13;;;10.50;1.00;;;;;;5062112;28;21711;-79